sensor_id;sensor_type;location;lat;lon;timestamp;P1;durP1;ratioP1;P2;durP2;ratioP2
65871;SDS011;52653;50.080;21.992;2023-03-11T00:00:22;15.30;;;12.20;;
65871;SDS011;52653;50.080;21.992;2023-03-11T00:03:26;15.20;;;12.00;;
65871;SDS011;52653;50.080;21.992;2023-03-11T00:06:19;12.10;;;9.90;;
65871;SDS011;52653;50.080;21.992;2023-03-11T00:08:54;12.20;;;9.90;;
65871;SDS011;52653;50.080;21.992;2023-03-11T00:11:47;13.00;;;10.00;;
65871;SDS011;52653;50.080;21.992;2023-03-11T00:14:40;11.10;;;9.00;;
65871;SDS011;52653;50.080;21.992;2023-03-11T00:17:33;11.60;;;9.10;;
65871;SDS011;52653;50.080;21.992;2023-03-11T00:20:27;14.10;;;10.30;;
65871;SDS011;52653;50.080;21.992;2023-03-11T00:23:14;12.70;;;9.40;;
65871;SDS011;52653;50.080;21.992;2023-03-11T00:25:50;14.00;;;10.80;;
65871;SDS011;52653;50.080;21.992;2023-03-11T00:28:36;13.20;;;10.40;;
65871;SDS011;52653;50.080;21.992;2023-03-11T00:31:20;13.00;;;10.40;;
65871;SDS011;52653;50.080;21.992;2023-03-11T00:33:59;14.40;;;10.80;;
65871;SDS011;52653;50.080;21.992;2023-03-11T00:36:34;13.90;;;11.00;;
65871;SDS011;52653;50.080;21.992;2023-03-11T00:39:27;14.20;;;10.80;;
65871;SDS011;52653;50.080;21.992;2023-03-11T00:42:00;13.30;;;10.10;;
65871;SDS011;52653;50.080;21.992;2023-03-11T00:44:43;13.70;;;10.80;;
65871;SDS011;52653;50.080;21.992;2023-03-11T00:47:26;11.90;;;9.60;;
65871;SDS011;52653;50.080;21.992;2023-03-11T00:50:12;13.60;;;9.70;;
65871;SDS011;52653;50.080;21.992;2023-03-11T00:53:08;13.30;;;9.10;;
65871;SDS011;52653;50.080;21.992;2023-03-11T00:55:54;12.80;;;8.90;;
65871;SDS011;52653;50.080;21.992;2023-03-11T00:58:37;11.00;;;7.20;;
65871;SDS011;52653;50.080;21.992;2023-03-11T01:01:30;11.10;;;7.90;;
65871;SDS011;52653;50.080;21.992;2023-03-11T01:04:23;10.30;;;6.90;;
65871;SDS011;52653;50.080;21.992;2023-03-11T01:06:56;10.70;;;6.70;;
65871;SDS011;52653;50.080;21.992;2023-03-11T01:09:42;8.50;;;6.20;;
65871;SDS011;52653;50.080;21.992;2023-03-11T01:12:35;7.50;;;5.50;;
65871;SDS011;52653;50.080;21.992;2023-03-11T01:15:29;8.40;;;5.20;;
65871;SDS011;52653;50.080;21.992;2023-03-11T01:18:24;6.60;;;4.80;;
65871;SDS011;52653;50.080;21.992;2023-03-11T01:21:10;7.20;;;4.50;;
65871;SDS011;52653;50.080;21.992;2023-03-11T01:23:55;8.80;;;4.90;;
65871;SDS011;52653;50.080;21.992;2023-03-11T01:26:41;7.80;;;4.30;;
65871;SDS011;52653;50.080;21.992;2023-03-11T01:29:34;6.40;;;4.00;;
65871;SDS011;52653;50.080;21.992;2023-03-11T01:32:11;5.80;;;3.60;;
65871;SDS011;52653;50.080;21.992;2023-03-11T01:35:04;4.90;;;3.20;;
65871;SDS011;52653;50.080;21.992;2023-03-11T01:37:42;6.80;;;2.80;;
65871;SDS011;52653;50.080;21.992;2023-03-11T01:40:19;5.30;;;3.00;;
65871;SDS011;52653;50.080;21.992;2023-03-11T01:42:58;5.60;;;2.90;;
65871;SDS011;52653;50.080;21.992;2023-03-11T01:46:09;5.00;;;3.30;;
65871;SDS011;52653;50.080;21.992;2023-03-11T01:49:09;4.60;;;2.70;;
65871;SDS011;52653;50.080;21.992;2023-03-11T01:51:44;4.90;;;2.70;;
65871;SDS011;52653;50.080;21.992;2023-03-11T01:54:30;4.20;;;2.60;;
65871;SDS011;52653;50.080;21.992;2023-03-11T01:57:12;3.90;;;2.40;;
65871;SDS011;52653;50.080;21.992;2023-03-11T02:00:08;4.30;;;2.60;;
65871;SDS011;52653;50.080;21.992;2023-03-11T02:02:49;4.30;;;2.30;;
65871;SDS011;52653;50.080;21.992;2023-03-11T02:05:27;5.00;;;2.40;;
65871;SDS011;52653;50.080;21.992;2023-03-11T02:08:20;3.90;;;2.30;;
65871;SDS011;52653;50.080;21.992;2023-03-11T02:11:14;5.20;;;2.90;;
65871;SDS011;52653;50.080;21.992;2023-03-11T02:14:10;4.40;;;2.50;;
65871;SDS011;52653;50.080;21.992;2023-03-11T02:17:03;3.90;;;2.10;;
65871;SDS011;52653;50.080;21.992;2023-03-11T02:19:58;4.30;;;2.10;;
65871;SDS011;52653;50.080;21.992;2023-03-11T02:22:47;3.90;;;1.90;;
65871;SDS011;52653;50.080;21.992;2023-03-11T02:25:47;3.90;;;2.10;;
65871;SDS011;52653;50.080;21.992;2023-03-11T02:28:47;2.70;;;1.60;;
65871;SDS011;52653;50.080;21.992;2023-03-11T02:31:42;4.10;;;1.80;;
65871;SDS011;52653;50.080;21.992;2023-03-11T02:34:22;3.00;;;1.70;;
65871;SDS011;52653;50.080;21.992;2023-03-11T02:36:57;3.40;;;2.00;;
65871;SDS011;52653;50.080;21.992;2023-03-11T02:39:31;2.70;;;1.90;;
65871;SDS011;52653;50.080;21.992;2023-03-11T02:42:06;3.10;;;1.80;;
65871;SDS011;52653;50.080;21.992;2023-03-11T02:44:57;3.30;;;1.90;;
65871;SDS011;52653;50.080;21.992;2023-03-11T02:47:46;3.10;;;1.80;;
65871;SDS011;52653;50.080;21.992;2023-03-11T02:50:20;2.90;;;1.90;;
65871;SDS011;52653;50.080;21.992;2023-03-11T02:52:59;3.00;;;2.00;;
65871;SDS011;52653;50.080;21.992;2023-03-11T02:55:35;5.20;;;2.40;;
65871;SDS011;52653;50.080;21.992;2023-03-11T02:58:21;4.50;;;1.90;;
65871;SDS011;52653;50.080;21.992;2023-03-11T03:03:44;3.50;;;1.90;;
65871;SDS011;52653;50.080;21.992;2023-03-11T03:06:37;4.50;;;2.10;;
65871;SDS011;52653;50.080;21.992;2023-03-11T03:09:30;4.30;;;2.10;;
65871;SDS011;52653;50.080;21.992;2023-03-11T03:12:15;3.40;;;2.10;;
65871;SDS011;52653;50.080;21.992;2023-03-11T03:14:55;3.50;;;1.90;;
65871;SDS011;52653;50.080;21.992;2023-03-11T03:17:31;3.60;;;2.20;;
65871;SDS011;52653;50.080;21.992;2023-03-11T03:20:13;3.90;;;2.10;;
65871;SDS011;52653;50.080;21.992;2023-03-11T03:22:50;4.30;;;2.30;;
65871;SDS011;52653;50.080;21.992;2023-03-11T03:25:44;3.20;;;1.90;;
65871;SDS011;52653;50.080;21.992;2023-03-11T03:28:28;3.90;;;2.30;;
65871;SDS011;52653;50.080;21.992;2023-03-11T03:31:22;3.90;;;2.20;;
65871;SDS011;52653;50.080;21.992;2023-03-11T03:34:04;3.70;;;2.00;;
65871;SDS011;52653;50.080;21.992;2023-03-11T03:36:57;4.60;;;2.60;;
65871;SDS011;52653;50.080;21.992;2023-03-11T03:39:35;4.50;;;2.00;;
65871;SDS011;52653;50.080;21.992;2023-03-11T03:42:12;3.80;;;2.10;;
65871;SDS011;52653;50.080;21.992;2023-03-11T03:44:48;3.70;;;1.90;;
65871;SDS011;52653;50.080;21.992;2023-03-11T03:47:32;3.80;;;2.20;;
65871;SDS011;52653;50.080;21.992;2023-03-11T03:50:08;4.50;;;2.00;;
65871;SDS011;52653;50.080;21.992;2023-03-11T03:52:57;4.50;;;2.50;;
65871;SDS011;52653;50.080;21.992;2023-03-11T03:55:51;4.40;;;2.40;;
65871;SDS011;52653;50.080;21.992;2023-03-11T03:58:27;3.50;;;2.10;;
65871;SDS011;52653;50.080;21.992;2023-03-11T04:01:04;3.50;;;2.00;;
65871;SDS011;52653;50.080;21.992;2023-03-11T04:03:38;4.60;;;2.20;;
65871;SDS011;52653;50.080;21.992;2023-03-11T04:06:16;4.30;;;2.10;;
65871;SDS011;52653;50.080;21.992;2023-03-11T04:09:00;4.50;;;2.40;;
65871;SDS011;52653;50.080;21.992;2023-03-11T04:11:41;4.40;;;2.50;;
65871;SDS011;52653;50.080;21.992;2023-03-11T04:14:23;4.50;;;2.80;;
65871;SDS011;52653;50.080;21.992;2023-03-11T04:17:07;5.50;;;4.00;;
65871;SDS011;52653;50.080;21.992;2023-03-11T04:20:02;6.00;;;4.20;;
65871;SDS011;52653;50.080;21.992;2023-03-11T04:22:57;8.80;;;6.20;;
65871;SDS011;52653;50.080;21.992;2023-03-11T04:25:42;7.20;;;4.70;;
65871;SDS011;52653;50.080;21.992;2023-03-11T04:28:19;7.80;;;5.30;;
65871;SDS011;52653;50.080;21.992;2023-03-11T04:31:06;5.70;;;2.90;;
65871;SDS011;52653;50.080;21.992;2023-03-11T04:34:00;3.90;;;2.50;;
65871;SDS011;52653;50.080;21.992;2023-03-11T04:36:33;5.20;;;2.60;;
65871;SDS011;52653;50.080;21.992;2023-03-11T04:39:25;4.70;;;2.30;;
65871;SDS011;52653;50.080;21.992;2023-03-11T04:42:18;4.50;;;2.40;;
65871;SDS011;52653;50.080;21.992;2023-03-11T04:44:54;4.40;;;2.40;;
65871;SDS011;52653;50.080;21.992;2023-03-11T04:47:34;4.30;;;2.20;;
65871;SDS011;52653;50.080;21.992;2023-03-11T04:50:17;4.50;;;2.30;;
65871;SDS011;52653;50.080;21.992;2023-03-11T04:53:00;4.70;;;2.60;;
65871;SDS011;52653;50.080;21.992;2023-03-11T04:55:40;4.80;;;2.60;;
65871;SDS011;52653;50.080;21.992;2023-03-11T04:58:21;5.00;;;2.60;;
65871;SDS011;52653;50.080;21.992;2023-03-11T05:00:54;4.10;;;2.50;;
65871;SDS011;52653;50.080;21.992;2023-03-11T05:03:37;4.50;;;2.30;;
65871;SDS011;52653;50.080;21.992;2023-03-11T05:06:30;4.50;;;2.30;;
65871;SDS011;52653;50.080;21.992;2023-03-11T05:09:18;4.80;;;2.70;;
65871;SDS011;52653;50.080;21.992;2023-03-11T05:11:54;4.80;;;2.50;;
65871;SDS011;52653;50.080;21.992;2023-03-11T05:14:29;4.60;;;2.40;;
65871;SDS011;52653;50.080;21.992;2023-03-11T05:17:15;5.10;;;2.60;;
65871;SDS011;52653;50.080;21.992;2023-03-11T05:19:58;4.90;;;2.60;;
65871;SDS011;52653;50.080;21.992;2023-03-11T05:22:39;5.10;;;2.50;;
65871;SDS011;52653;50.080;21.992;2023-03-11T05:25:23;5.40;;;2.90;;
65871;SDS011;52653;50.080;21.992;2023-03-11T05:28:09;6.40;;;2.80;;
65871;SDS011;52653;50.080;21.992;2023-03-11T05:30:51;4.40;;;2.50;;
65871;SDS011;52653;50.080;21.992;2023-03-11T05:33:45;5.20;;;2.50;;
65871;SDS011;52653;50.080;21.992;2023-03-11T05:36:27;5.20;;;2.90;;
65871;SDS011;52653;50.080;21.992;2023-03-11T05:39:20;6.90;;;3.50;;
65871;SDS011;52653;50.080;21.992;2023-03-11T05:42:14;8.00;;;4.40;;
65871;SDS011;52653;50.080;21.992;2023-03-11T05:44:58;9.30;;;4.30;;
65871;SDS011;52653;50.080;21.992;2023-03-11T05:47:51;11.00;;;4.40;;
65871;SDS011;52653;50.080;21.992;2023-03-11T05:50:44;7.90;;;4.30;;
65871;SDS011;52653;50.080;21.992;2023-03-11T05:53:36;6.60;;;3.30;;
65871;SDS011;52653;50.080;21.992;2023-03-11T05:56:32;4.60;;;2.10;;
65871;SDS011;52653;50.080;21.992;2023-03-11T05:59:23;4.20;;;2.10;;
65871;SDS011;52653;50.080;21.992;2023-03-11T06:02:01;5.40;;;2.60;;
65871;SDS011;52653;50.080;21.992;2023-03-11T06:04:41;6.10;;;2.80;;
65871;SDS011;52653;50.080;21.992;2023-03-11T06:07:34;5.00;;;2.20;;
65871;SDS011;52653;50.080;21.992;2023-03-11T06:10:27;6.20;;;1.80;;
65871;SDS011;52653;50.080;21.992;2023-03-11T06:13:05;4.20;;;1.60;;
65871;SDS011;52653;50.080;21.992;2023-03-11T06:15:57;3.60;;;1.60;;
65871;SDS011;52653;50.080;21.992;2023-03-11T06:18:41;4.10;;;1.90;;
65871;SDS011;52653;50.080;21.992;2023-03-11T06:21:24;3.70;;;1.50;;
65871;SDS011;52653;50.080;21.992;2023-03-11T06:24:01;4.30;;;1.70;;
65871;SDS011;52653;50.080;21.992;2023-03-11T06:26:45;3.90;;;1.50;;
65871;SDS011;52653;50.080;21.992;2023-03-11T06:29:33;4.20;;;1.50;;
65871;SDS011;52653;50.080;21.992;2023-03-11T06:32:26;6.00;;;2.60;;
65871;SDS011;52653;50.080;21.992;2023-03-11T06:35:06;8.60;;;3.80;;
65871;SDS011;52653;50.080;21.992;2023-03-11T06:37:59;14.70;;;8.40;;
65871;SDS011;52653;50.080;21.992;2023-03-11T06:40:52;33.80;;;17.80;;
65871;SDS011;52653;50.080;21.992;2023-03-11T06:43:48;9.20;;;3.80;;
65871;SDS011;52653;50.080;21.992;2023-03-11T06:46:31;11.60;;;5.30;;
65871;SDS011;52653;50.080;21.992;2023-03-11T06:49:24;15.40;;;8.00;;
65871;SDS011;52653;50.080;21.992;2023-03-11T06:52:07;7.10;;;3.20;;
65871;SDS011;52653;50.080;21.992;2023-03-11T06:54:46;12.60;;;6.70;;
65871;SDS011;52653;50.080;21.992;2023-03-11T06:57:27;14.50;;;5.90;;
65871;SDS011;52653;50.080;21.992;2023-03-11T07:00:20;5.00;;;1.70;;
65871;SDS011;52653;50.080;21.992;2023-03-11T07:03:01;2.70;;;1.40;;
65871;SDS011;52653;50.080;21.992;2023-03-11T07:05:50;4.00;;;1.90;;
65871;SDS011;52653;50.080;21.992;2023-03-11T07:08:25;3.50;;;1.60;;
65871;SDS011;52653;50.080;21.992;2023-03-11T07:11:20;3.60;;;1.30;;
65871;SDS011;52653;50.080;21.992;2023-03-11T07:14:00;3.80;;;1.70;;
65871;SDS011;52653;50.080;21.992;2023-03-11T07:16:37;5.20;;;2.00;;
65871;SDS011;52653;50.080;21.992;2023-03-11T07:19:30;2.90;;;1.10;;
65871;SDS011;52653;50.080;21.992;2023-03-11T07:22:14;3.10;;;1.50;;
65871;SDS011;52653;50.080;21.992;2023-03-11T07:24:58;5.90;;;1.70;;
65871;SDS011;52653;50.080;21.992;2023-03-11T07:27:53;3.20;;;1.20;;
65871;SDS011;52653;50.080;21.992;2023-03-11T07:30:46;3.30;;;1.70;;
65871;SDS011;52653;50.080;21.992;2023-03-11T07:33:24;4.30;;;2.10;;
65871;SDS011;52653;50.080;21.992;2023-03-11T07:36:03;3.10;;;1.70;;
65871;SDS011;52653;50.080;21.992;2023-03-11T07:38:47;4.50;;;1.50;;
65871;SDS011;52653;50.080;21.992;2023-03-11T07:41:44;4.50;;;1.70;;
65871;SDS011;52653;50.080;21.992;2023-03-11T07:44:17;3.40;;;1.40;;
65871;SDS011;52653;50.080;21.992;2023-03-11T07:46:50;2.30;;;1.30;;
65871;SDS011;52653;50.080;21.992;2023-03-11T07:49:32;2.80;;;1.50;;
65871;SDS011;52653;50.080;21.992;2023-03-11T07:52:15;2.50;;;1.20;;
65871;SDS011;52653;50.080;21.992;2023-03-11T07:54:51;2.60;;;1.20;;
65871;SDS011;52653;50.080;21.992;2023-03-11T07:57:29;2.70;;;1.40;;
65871;SDS011;52653;50.080;21.992;2023-03-11T08:00:10;3.80;;;1.40;;
65871;SDS011;52653;50.080;21.992;2023-03-11T08:02:47;5.50;;;2.50;;
65871;SDS011;52653;50.080;21.992;2023-03-11T08:05:39;5.00;;;2.40;;
65871;SDS011;52653;50.080;21.992;2023-03-11T08:08:22;4.80;;;2.40;;
65871;SDS011;52653;50.080;21.992;2023-03-11T08:11:08;3.30;;;1.80;;
65871;SDS011;52653;50.080;21.992;2023-03-11T08:14:02;2.50;;;1.40;;
65871;SDS011;52653;50.080;21.992;2023-03-11T08:16:45;3.30;;;1.50;;
65871;SDS011;52653;50.080;21.992;2023-03-11T08:19:28;4.60;;;2.10;;
65871;SDS011;52653;50.080;21.992;2023-03-11T08:22:03;4.70;;;2.30;;
65871;SDS011;52653;50.080;21.992;2023-03-11T08:24:56;3.30;;;1.90;;
65871;SDS011;52653;50.080;21.992;2023-03-11T08:27:49;3.00;;;1.60;;
65871;SDS011;52653;50.080;21.992;2023-03-11T08:30:42;2.80;;;1.90;;
65871;SDS011;52653;50.080;21.992;2023-03-11T08:33:24;3.90;;;2.20;;
65871;SDS011;52653;50.080;21.992;2023-03-11T08:36:18;4.40;;;2.20;;
65871;SDS011;52653;50.080;21.992;2023-03-11T08:39:00;3.50;;;2.00;;
65871;SDS011;52653;50.080;21.992;2023-03-11T08:41:53;3.60;;;2.10;;
65871;SDS011;52653;50.080;21.992;2023-03-11T08:44:48;5.50;;;2.60;;
65871;SDS011;52653;50.080;21.992;2023-03-11T08:47:21;3.10;;;1.60;;
65871;SDS011;52653;50.080;21.992;2023-03-11T08:50:15;3.20;;;1.50;;
65871;SDS011;52653;50.080;21.992;2023-03-11T08:52:53;3.50;;;1.40;;
65871;SDS011;52653;50.080;21.992;2023-03-11T08:55:39;2.80;;;1.10;;
65871;SDS011;52653;50.080;21.992;2023-03-11T08:58:32;1.70;;;0.80;;
65871;SDS011;52653;50.080;21.992;2023-03-11T09:01:19;2.50;;;1.10;;
65871;SDS011;52653;50.080;21.992;2023-03-11T09:03:53;2.00;;;1.10;;
65871;SDS011;52653;50.080;21.992;2023-03-11T09:06:35;4.20;;;1.40;;
65871;SDS011;52653;50.080;21.992;2023-03-11T09:09:32;1.80;;;1.00;;
65871;SDS011;52653;50.080;21.992;2023-03-11T09:12:26;2.00;;;1.00;;
65871;SDS011;52653;50.080;21.992;2023-03-11T09:15:06;2.60;;;0.90;;
65871;SDS011;52653;50.080;21.992;2023-03-11T09:18:00;2.60;;;1.40;;
65871;SDS011;52653;50.080;21.992;2023-03-11T09:20:33;2.10;;;1.00;;
65871;SDS011;52653;50.080;21.992;2023-03-11T09:23:28;2.40;;;1.20;;
65871;SDS011;52653;50.080;21.992;2023-03-11T09:26:12;2.20;;;1.10;;
65871;SDS011;52653;50.080;21.992;2023-03-11T09:28:46;4.00;;;1.30;;
65871;SDS011;52653;50.080;21.992;2023-03-11T09:31:21;2.70;;;1.20;;
65871;SDS011;52653;50.080;21.992;2023-03-11T09:33:57;3.40;;;1.20;;
65871;SDS011;52653;50.080;21.992;2023-03-11T09:36:30;2.10;;;1.00;;
65871;SDS011;52653;50.080;21.992;2023-03-11T09:39:03;1.90;;;1.00;;
65871;SDS011;52653;50.080;21.992;2023-03-11T09:41:37;2.00;;;1.00;;
65871;SDS011;52653;50.080;21.992;2023-03-11T09:44:29;2.40;;;1.10;;
65871;SDS011;52653;50.080;21.992;2023-03-11T09:47:14;1.80;;;1.00;;
65871;SDS011;52653;50.080;21.992;2023-03-11T09:50:05;4.90;;;2.10;;
65871;SDS011;52653;50.080;21.992;2023-03-11T09:52:46;3.10;;;1.30;;
65871;SDS011;52653;50.080;21.992;2023-03-11T09:55:34;2.10;;;1.20;;
65871;SDS011;52653;50.080;21.992;2023-03-11T09:58:13;3.20;;;1.40;;
65871;SDS011;52653;50.080;21.992;2023-03-11T10:00:51;4.40;;;2.00;;
65871;SDS011;52653;50.080;21.992;2023-03-11T10:03:30;4.80;;;1.80;;
65871;SDS011;52653;50.080;21.992;2023-03-11T10:06:16;3.80;;;1.70;;
65871;SDS011;52653;50.080;21.992;2023-03-11T10:08:54;3.10;;;1.70;;
65871;SDS011;52653;50.080;21.992;2023-03-11T10:11:49;3.50;;;2.10;;
65871;SDS011;52653;50.080;21.992;2023-03-11T10:14:47;4.10;;;2.10;;
65871;SDS011;52653;50.080;21.992;2023-03-11T10:17:38;3.70;;;2.10;;
65871;SDS011;52653;50.080;21.992;2023-03-11T10:20:33;3.70;;;2.10;;
65871;SDS011;52653;50.080;21.992;2023-03-11T10:23:17;4.00;;;2.40;;
65871;SDS011;52653;50.080;21.992;2023-03-11T10:25:59;4.40;;;2.60;;
65871;SDS011;52653;50.080;21.992;2023-03-11T10:28:48;4.00;;;2.20;;
65871;SDS011;52653;50.080;21.992;2023-03-11T10:31:30;3.70;;;2.00;;
65871;SDS011;52653;50.080;21.992;2023-03-11T10:34:19;4.50;;;2.20;;
65871;SDS011;52653;50.080;21.992;2023-03-11T10:36:58;5.80;;;3.20;;
65871;SDS011;52653;50.080;21.992;2023-03-11T10:39:46;5.50;;;3.50;;
65871;SDS011;52653;50.080;21.992;2023-03-11T10:42:23;5.00;;;2.90;;
65871;SDS011;52653;50.080;21.992;2023-03-11T10:45:04;5.50;;;2.80;;
65871;SDS011;52653;50.080;21.992;2023-03-11T10:47:43;4.20;;;2.60;;
65871;SDS011;52653;50.080;21.992;2023-03-11T10:50:17;4.90;;;2.70;;
65871;SDS011;52653;50.080;21.992;2023-03-11T10:55:48;5.60;;;3.50;;
65871;SDS011;52653;50.080;21.992;2023-03-11T10:58:23;5.20;;;3.10;;
65871;SDS011;52653;50.080;21.992;2023-03-11T11:01:04;4.80;;;2.90;;
65871;SDS011;52653;50.080;21.992;2023-03-11T11:03:46;6.10;;;3.00;;
65871;SDS011;52653;50.080;21.992;2023-03-11T11:06:25;5.00;;;3.30;;
65871;SDS011;52653;50.080;21.992;2023-03-11T11:09:15;6.00;;;3.40;;
65871;SDS011;52653;50.080;21.992;2023-03-11T11:12:03;6.10;;;3.50;;
65871;SDS011;52653;50.080;21.992;2023-03-11T11:14:45;4.80;;;3.40;;
65871;SDS011;52653;50.080;21.992;2023-03-11T11:17:23;5.20;;;3.60;;
65871;SDS011;52653;50.080;21.992;2023-03-11T11:20:01;4.40;;;3.30;;
65871;SDS011;52653;50.080;21.992;2023-03-11T11:22:49;5.50;;;3.60;;
65871;SDS011;52653;50.080;21.992;2023-03-11T11:25:26;6.80;;;2.90;;
65871;SDS011;52653;50.080;21.992;2023-03-11T11:28:02;5.10;;;3.20;;
65871;SDS011;52653;50.080;21.992;2023-03-11T11:30:52;4.50;;;3.00;;
65871;SDS011;52653;50.080;21.992;2023-03-11T11:33:27;6.90;;;4.10;;
65871;SDS011;52653;50.080;21.992;2023-03-11T11:36:11;12.90;;;7.40;;
65871;SDS011;52653;50.080;21.992;2023-03-11T11:38:51;9.50;;;5.30;;
65871;SDS011;52653;50.080;21.992;2023-03-11T11:41:25;8.50;;;6.10;;
65871;SDS011;52653;50.080;21.992;2023-03-11T11:44:03;10.20;;;7.40;;
65871;SDS011;52653;50.080;21.992;2023-03-11T11:46:43;6.40;;;4.20;;
65871;SDS011;52653;50.080;21.992;2023-03-11T11:49:24;5.40;;;3.60;;
65871;SDS011;52653;50.080;21.992;2023-03-11T11:52:11;4.60;;;2.90;;
65871;SDS011;52653;50.080;21.992;2023-03-11T11:54:57;5.80;;;4.20;;
65871;SDS011;52653;50.080;21.992;2023-03-11T11:57:33;7.00;;;4.80;;
65871;SDS011;52653;50.080;21.992;2023-03-11T12:00:12;7.80;;;4.90;;
65871;SDS011;52653;50.080;21.992;2023-03-11T12:03:00;6.00;;;3.80;;
65871;SDS011;52653;50.080;21.992;2023-03-11T12:05:48;6.00;;;3.30;;
65871;SDS011;52653;50.080;21.992;2023-03-11T12:08:30;8.30;;;5.10;;
65871;SDS011;52653;50.080;21.992;2023-03-11T12:11:12;9.00;;;5.30;;
65871;SDS011;52653;50.080;21.992;2023-03-11T12:13:50;6.40;;;4.40;;
65871;SDS011;52653;50.080;21.992;2023-03-11T12:16:36;5.90;;;4.10;;
65871;SDS011;52653;50.080;21.992;2023-03-11T12:19:18;5.90;;;3.50;;
65871;SDS011;52653;50.080;21.992;2023-03-11T12:22:00;7.50;;;2.80;;
65871;SDS011;52653;50.080;21.992;2023-03-11T12:28:15;5.70;;;3.20;;
65871;SDS011;52653;50.080;21.992;2023-03-11T12:30:54;6.20;;;3.60;;
65871;SDS011;52653;50.080;21.992;2023-03-11T12:33:32;6.60;;;3.90;;
65871;SDS011;52653;50.080;21.992;2023-03-11T12:36:16;7.20;;;4.40;;
65871;SDS011;52653;50.080;21.992;2023-03-11T12:38:55;6.70;;;3.70;;
65871;SDS011;52653;50.080;21.992;2023-03-11T12:41:30;6.20;;;3.60;;
65871;SDS011;52653;50.080;21.992;2023-03-11T12:47:02;8.90;;;5.00;;
65871;SDS011;52653;50.080;21.992;2023-03-11T12:49:51;8.20;;;4.60;;
65871;SDS011;52653;50.080;21.992;2023-03-11T12:52:28;9.10;;;4.60;;
65871;SDS011;52653;50.080;21.992;2023-03-11T12:55:28;7.50;;;3.70;;
65871;SDS011;52653;50.080;21.992;2023-03-11T13:04:05;8.20;;;4.40;;
65871;SDS011;52653;50.080;21.992;2023-03-11T13:10:14;8.20;;;5.10;;
65871;SDS011;52653;50.080;21.992;2023-03-11T13:12:52;8.50;;;4.70;;
65871;SDS011;52653;50.080;21.992;2023-03-11T13:15:27;8.90;;;4.40;;
65871;SDS011;52653;50.080;21.992;2023-03-11T13:18:15;6.90;;;4.10;;
65871;SDS011;52653;50.080;21.992;2023-03-11T13:20:53;8.00;;;4.40;;
65871;SDS011;52653;50.080;21.992;2023-03-11T13:23:31;6.30;;;3.80;;
65871;SDS011;52653;50.080;21.992;2023-03-11T13:26:35;5.40;;;3.30;;
65871;SDS011;52653;50.080;21.992;2023-03-11T13:35:47;5.20;;;2.70;;
65871;SDS011;52653;50.080;21.992;2023-03-11T13:38:41;5.40;;;2.80;;
65871;SDS011;52653;50.080;21.992;2023-03-11T13:41:41;4.70;;;2.60;;
65871;SDS011;52653;50.080;21.992;2023-03-11T13:44:21;6.00;;;3.30;;
65871;SDS011;52653;50.080;21.992;2023-03-11T13:47:01;6.90;;;3.70;;
65871;SDS011;52653;50.080;21.992;2023-03-11T13:49:41;5.60;;;3.60;;
65871;SDS011;52653;50.080;21.992;2023-03-11T13:52:16;6.00;;;3.30;;
65871;SDS011;52653;50.080;21.992;2023-03-11T13:54:59;7.10;;;3.00;;
65871;SDS011;52653;50.080;21.992;2023-03-11T13:57:36;7.10;;;3.10;;
65871;SDS011;52653;50.080;21.992;2023-03-11T14:02:53;5.50;;;3.40;;
65871;SDS011;52653;50.080;21.992;2023-03-11T14:05:50;5.80;;;3.00;;
65871;SDS011;52653;50.080;21.992;2023-03-11T14:08:41;8.00;;;3.50;;
65871;SDS011;52653;50.080;21.992;2023-03-11T14:11:42;6.20;;;3.50;;
65871;SDS011;52653;50.080;21.992;2023-03-11T14:14:26;7.40;;;3.80;;
65871;SDS011;52653;50.080;21.992;2023-03-11T14:17:30;6.40;;;3.30;;
65871;SDS011;52653;50.080;21.992;2023-03-11T14:20:23;6.10;;;3.50;;
65871;SDS011;52653;50.080;21.992;2023-03-11T14:23:20;6.70;;;3.50;;
65871;SDS011;52653;50.080;21.992;2023-03-11T14:26:07;7.50;;;3.30;;
65871;SDS011;52653;50.080;21.992;2023-03-11T14:28:45;5.10;;;3.00;;
65871;SDS011;52653;50.080;21.992;2023-03-11T14:31:31;6.00;;;3.00;;
65871;SDS011;52653;50.080;21.992;2023-03-11T14:34:13;6.00;;;3.40;;
65871;SDS011;52653;50.080;21.992;2023-03-11T14:36:49;8.10;;;4.00;;
65871;SDS011;52653;50.080;21.992;2023-03-11T14:39:29;7.30;;;4.20;;
65871;SDS011;52653;50.080;21.992;2023-03-11T14:42:13;8.40;;;4.20;;
65871;SDS011;52653;50.080;21.992;2023-03-11T14:45:08;8.70;;;4.10;;
65871;SDS011;52653;50.080;21.992;2023-03-11T14:47:48;7.50;;;3.70;;
65871;SDS011;52653;50.080;21.992;2023-03-11T14:50:27;7.40;;;3.80;;
65871;SDS011;52653;50.080;21.992;2023-03-11T14:53:05;6.70;;;3.90;;
65871;SDS011;52653;50.080;21.992;2023-03-11T14:55:47;8.00;;;4.50;;
65871;SDS011;52653;50.080;21.992;2023-03-11T14:58:27;8.00;;;4.30;;
65871;SDS011;52653;50.080;21.992;2023-03-11T15:01:05;8.30;;;4.90;;
65871;SDS011;52653;50.080;21.992;2023-03-11T15:03:45;8.30;;;4.20;;
65871;SDS011;52653;50.080;21.992;2023-03-11T15:06:22;9.30;;;5.10;;
65871;SDS011;52653;50.080;21.992;2023-03-11T15:09:01;8.60;;;4.70;;
65871;SDS011;52653;50.080;21.992;2023-03-11T15:11:47;7.70;;;4.20;;
65871;SDS011;52653;50.080;21.992;2023-03-11T15:14:27;7.20;;;4.00;;
65871;SDS011;52653;50.080;21.992;2023-03-11T15:17:09;5.50;;;3.00;;
65871;SDS011;52653;50.080;21.992;2023-03-11T15:20:02;9.70;;;5.30;;
65871;SDS011;52653;50.080;21.992;2023-03-11T15:22:54;8.40;;;4.60;;
65871;SDS011;52653;50.080;21.992;2023-03-11T15:25:37;6.80;;;3.40;;
65871;SDS011;52653;50.080;21.992;2023-03-11T15:28:22;6.50;;;3.20;;
65871;SDS011;52653;50.080;21.992;2023-03-11T15:31:25;7.30;;;4.20;;
65871;SDS011;52653;50.080;21.992;2023-03-11T15:34:21;8.80;;;4.40;;
65871;SDS011;52653;50.080;21.992;2023-03-11T15:37:17;12.90;;;8.10;;
65871;SDS011;52653;50.080;21.992;2023-03-11T15:40:09;8.90;;;5.10;;
65871;SDS011;52653;50.080;21.992;2023-03-11T15:43:06;7.50;;;4.00;;
65871;SDS011;52653;50.080;21.992;2023-03-11T15:45:49;9.00;;;5.20;;
65871;SDS011;52653;50.080;21.992;2023-03-11T15:48:34;9.20;;;4.70;;
65871;SDS011;52653;50.080;21.992;2023-03-11T15:51:17;9.00;;;5.00;;
65871;SDS011;52653;50.080;21.992;2023-03-11T15:53:59;10.60;;;6.30;;
65871;SDS011;52653;50.080;21.992;2023-03-11T15:56:32;10.90;;;5.90;;
65871;SDS011;52653;50.080;21.992;2023-03-11T15:59:08;12.80;;;7.60;;
65871;SDS011;52653;50.080;21.992;2023-03-11T16:01:44;12.60;;;7.90;;
65871;SDS011;52653;50.080;21.992;2023-03-11T16:04:20;11.20;;;6.10;;
65871;SDS011;52653;50.080;21.992;2023-03-11T16:06:53;8.50;;;5.20;;
65871;SDS011;52653;50.080;21.992;2023-03-11T16:09:40;9.40;;;5.50;;
65871;SDS011;52653;50.080;21.992;2023-03-11T16:12:17;8.80;;;5.20;;
65871;SDS011;52653;50.080;21.992;2023-03-11T16:14:51;7.50;;;4.50;;
65871;SDS011;52653;50.080;21.992;2023-03-11T16:17:26;8.10;;;4.50;;
65871;SDS011;52653;50.080;21.992;2023-03-11T16:20:20;11.60;;;5.40;;
65871;SDS011;52653;50.080;21.992;2023-03-11T16:25:32;8.40;;;5.00;;
65871;SDS011;52653;50.080;21.992;2023-03-11T16:28:27;9.00;;;4.80;;
65871;SDS011;52653;50.080;21.992;2023-03-11T16:31:22;9.10;;;5.00;;
65871;SDS011;52653;50.080;21.992;2023-03-11T16:33:59;9.80;;;5.00;;
65871;SDS011;52653;50.080;21.992;2023-03-11T16:36:35;10.70;;;5.90;;
65871;SDS011;52653;50.080;21.992;2023-03-11T16:39:11;11.10;;;5.20;;
65871;SDS011;52653;50.080;21.992;2023-03-11T16:41:44;11.70;;;6.40;;
65871;SDS011;52653;50.080;21.992;2023-03-11T16:44:21;14.90;;;7.80;;
65871;SDS011;52653;50.080;21.992;2023-03-11T16:46:57;13.60;;;6.50;;